DLH215 EGLL-EDDF
Flight info
| Callsign | DLH215 |
|---|---|
| Flight time | 1h 15m |
| Altitude | 33000 |
| Route | BPK6J BPK Q295 MATCH DCT REDFA DCT TACHA DCT NOLRU DCT DIXAT DIXAT1D |
| Aircraft | A21N/M-SDE2E3FGHIRWXY/LB1 |
Departure
| Time | 2026-05-07 23:08 |
|---|---|
| Airport | London Heathrow Airport (EGLL) |
Arrival
| Time | 2026-05-08 00:24 |
|---|---|
| Airport | Frankfurt Main Airport (EDDF) |
| Time | Latitude | Longitude | Altitude | Speed | Heading |
|---|---|---|---|---|---|
| 2026-05-07 22:45 | 51.47133 | -0.48032 | 88 ft | 0 kts | 269° |
| 2026-05-07 22:59 | 51.47133 | -0.48006 | 91 ft | 3 kts | 269° |
| 2026-05-07 23:00 | 51.47133 | -0.47975 | 88 ft | 3 kts | 269° |
| 2026-05-07 23:00 | 51.47133 | -0.47945 | 88 ft | 3 kts | 269° |
| 2026-05-07 23:00 | 51.47133 | -0.47916 | 88 ft | 3 kts | 257° |
| 2026-05-07 23:00 | 51.47139 | -0.47887 | 89 ft | 3 kts | 224° |
| 2026-05-07 23:01 | 51.47154 | -0.47868 | 89 ft | 3 kts | 189° |
| 2026-05-07 23:01 | 51.47160 | -0.47865 | 89 ft | 0 kts | 181° |
| 2026-05-07 23:04 | 51.47155 | -0.47864 | 89 ft | 0 kts | 174° |
| 2026-05-07 23:05 | 51.47139 | -0.47866 | 90 ft | 14 kts | 182° |
| 2026-05-07 23:05 | 51.47020 | -0.47868 | 89 ft | 16 kts | 180° |
| 2026-05-07 23:05 | 51.46845 | -0.47867 | 86 ft | 26 kts | 181° |
| 2026-05-07 23:05 | 51.46690 | -0.47871 | 83 ft | 15 kts | 192° |
| 2026-05-07 23:06 | 51.46652 | -0.47980 | 84 ft | 10 kts | 268° |
| 2026-05-07 23:06 | 51.46652 | -0.48214 | 87 ft | 35 kts | 270° |
| 2026-05-07 23:06 | 51.46650 | -0.48572 | 89 ft | 29 kts | 270° |
| 2026-05-07 23:06 | 51.46611 | -0.48763 | 85 ft | 12 kts | 210° |
| 2026-05-07 23:07 | 51.46584 | -0.48775 | 85 ft | 1 kts | 194° |
| 2026-05-07 23:07 | 51.46500 | -0.48765 | 87 ft | 18 kts | 144° |
| 2026-05-07 23:07 | 51.46478 | -0.48569 | 86 ft | 11 kts | 90° |
| 2026-05-07 23:07 | 51.46478 | -0.48556 | 86 ft | 0 kts | 90° |
| 2026-05-07 23:08 | 51.46479 | -0.48470 | 87 ft | 35 kts | 90° |
| 2026-05-07 23:08 | 51.46482 | -0.47625 | 81 ft | 116 kts | 89° |
| 2026-05-07 23:08 | 51.46487 | -0.45928 | 152 ft | 184 kts | 90° |
| 2026-05-07 23:08 | 51.46514 | -0.43656 | 709 ft | 221 kts | 90° |
| 2026-05-07 23:09 | 51.46683 | -0.40990 | 1418 ft | 261 kts | 75° |
| 2026-05-07 23:09 | 51.47536 | -0.38393 | 2326 ft | 276 kts | 51° |
| 2026-05-07 23:09 | 51.48911 | -0.36293 | 3846 ft | 270 kts | 45° |
| 2026-05-07 23:09 | 51.50201 | -0.34132 | 5310 ft | 272 kts | 51° |
| 2026-05-07 23:10 | 51.51428 | -0.31639 | 5990 ft | 302 kts | 54° |
| 2026-05-07 23:10 | 51.52553 | -0.28760 | 6001 ft | 305 kts | 69° |
| 2026-05-07 23:10 | 51.53268 | -0.25578 | 6008 ft | 316 kts | 73° |
| 2026-05-07 23:10 | 51.53925 | -0.22302 | 6000 ft | 297 kts | 73° |
| 2026-05-07 23:11 | 51.54781 | -0.19362 | 6006 ft | 292 kts | 53° |
| 2026-05-07 23:11 | 51.56302 | -0.17290 | 6011 ft | 285 kts | 27° |
| 2026-05-07 23:11 | 51.58197 | -0.16386 | 6031 ft | 285 kts | 8° |
| 2026-05-07 23:11 | 51.60135 | -0.15850 | 6021 ft | 283 kts | 6° |
| 2026-05-07 23:12 | 51.62069 | -0.15636 | 6026 ft | 281 kts | 1° |
| 2026-05-07 23:12 | 51.64030 | -0.15466 | 6025 ft | 282 kts | 4° |
| 2026-05-07 23:12 | 51.65964 | -0.14975 | 6023 ft | 282 kts | 17° |
| 2026-05-07 23:12 | 51.67835 | -0.13993 | 6024 ft | 283 kts | 17° |
| 2026-05-07 23:13 | 51.69716 | -0.13086 | 6026 ft | 283 kts | 15° |
| 2026-05-07 23:13 | 51.71614 | -0.12249 | 6024 ft | 283 kts | 15° |
| 2026-05-07 23:13 | 51.73453 | -0.11158 | 6019 ft | 282 kts | 34° |
| 2026-05-07 23:13 | 51.74804 | -0.08908 | 6025 ft | 281 kts | 62° |
| 2026-05-07 23:14 | 51.75396 | -0.06000 | 6030 ft | 279 kts | 83° |
| 2026-05-07 23:14 | 51.75644 | -0.02888 | 6078 ft | 286 kts | 85° |
| 2026-05-07 23:14 | 51.75888 | 0.00246 | 7369 ft | 273 kts | 84° |
| 2026-05-07 23:14 | 51.76151 | 0.03305 | 8425 ft | 281 kts | 83° |
| 2026-05-07 23:15 | 51.76414 | 0.06478 | 9336 ft | 287 kts | 84° |
| 2026-05-07 23:15 | 51.76677 | 0.09688 | 10297 ft | 291 kts | 83° |
| 2026-05-07 23:15 | 51.76950 | 0.12984 | 11031 ft | 303 kts | 83° |
| 2026-05-07 23:15 | 51.77238 | 0.16469 | 11511 ft | 323 kts | 82° |
| 2026-05-07 23:16 | 51.77515 | 0.19828 | 11917 ft | 342 kts | 82° |
| 2026-05-07 23:16 | 51.77824 | 0.23701 | 12316 ft | 363 kts | 82° |
| 2026-05-07 23:16 | 51.78359 | 0.27794 | 12693 ft | 383 kts | 75° |
| 2026-05-07 23:16 | 51.79048 | 0.31994 | 13502 ft | 387 kts | 74° |
| 2026-05-07 23:17 | 51.79722 | 0.36228 | 14385 ft | 392 kts | 74° |
| 2026-05-07 23:17 | 51.80397 | 0.40539 | 15082 ft | 400 kts | 74° |
| 2026-05-07 23:17 | 51.81092 | 0.44918 | 15845 ft | 405 kts | 73° |
| 2026-05-07 23:17 | 51.81800 | 0.49356 | 16547 ft | 411 kts | 73° |
| 2026-05-07 23:18 | 51.82514 | 0.53854 | 17240 ft | 416 kts | 73° |
| 2026-05-07 23:18 | 51.83232 | 0.58421 | 17907 ft | 422 kts | 73° |
| 2026-05-07 23:18 | 51.83947 | 0.62985 | 18588 ft | 427 kts | 73° |
| 2026-05-07 23:18 | 51.84680 | 0.67665 | 19257 ft | 432 kts | 72° |
| 2026-05-07 23:19 | 51.85419 | 0.72390 | 19955 ft | 435 kts | 72° |
| 2026-05-07 23:19 | 51.86164 | 0.77165 | 20588 ft | 441 kts | 72° |
| 2026-05-07 23:19 | 51.86912 | 0.81994 | 21262 ft | 443 kts | 72° |
| 2026-05-07 23:19 | 51.87667 | 0.86868 | 21826 ft | 449 kts | 72° |
| 2026-05-07 23:20 | 51.88428 | 0.91786 | 22446 ft | 453 kts | 72° |
| 2026-05-07 23:20 | 51.89193 | 0.96753 | 22998 ft | 457 kts | 72° |
| 2026-05-07 23:20 | 51.89962 | 1.01771 | 23526 ft | 461 kts | 72° |
| 2026-05-07 23:20 | 51.90725 | 1.06766 | 24063 ft | 465 kts | 73° |
| 2026-05-07 23:21 | 51.91501 | 1.11866 | 24531 ft | 469 kts | 72° |
| 2026-05-07 23:21 | 51.92285 | 1.17014 | 25052 ft | 472 kts | 72° |
| 2026-05-07 23:21 | 51.93070 | 1.22196 | 25534 ft | 475 kts | 72° |
| 2026-05-07 23:21 | 51.93859 | 1.27418 | 25972 ft | 479 kts | 72° |
| 2026-05-07 23:22 | 51.94649 | 1.32673 | 26460 ft | 481 kts | 73° |
| 2026-05-07 23:22 | 51.95441 | 1.37960 | 26908 ft | 484 kts | 73° |
| 2026-05-07 23:22 | 51.96237 | 1.43274 | 27313 ft | 487 kts | 73° |
| 2026-05-07 23:22 | 51.97037 | 1.48628 | 27726 ft | 490 kts | 73° |
| 2026-05-07 23:23 | 51.97824 | 1.53950 | 28142 ft | 492 kts | 73° |
| 2026-05-07 23:23 | 51.98618 | 1.59336 | 28748 ft | 490 kts | 73° |
| 2026-05-07 23:23 | 51.99409 | 1.64692 | 29366 ft | 487 kts | 73° |
| 2026-05-07 23:23 | 52.00197 | 1.70031 | 29903 ft | 486 kts | 73° |
| 2026-05-07 23:24 | 52.00976 | 1.75359 | 30377 ft | 485 kts | 73° |
| 2026-05-07 23:24 | 52.01753 | 1.80685 | 30848 ft | 484 kts | 73° |
| 2026-05-07 23:24 | 52.02527 | 1.86000 | 31293 ft | 484 kts | 73° |
| 2026-05-07 23:24 | 52.03297 | 1.91309 | 31723 ft | 483 kts | 73° |
| 2026-05-07 23:25 | 52.04063 | 1.96622 | 32147 ft | 483 kts | 74° |
| 2026-05-07 23:25 | 52.04825 | 2.01930 | 32568 ft | 482 kts | 74° |
| 2026-05-07 23:25 | 52.05577 | 2.07153 | 32961 ft | 482 kts | 74° |
| 2026-05-07 23:25 | 52.06343 | 2.12484 | 33066 ft | 490 kts | 74° |
| 2026-05-07 23:26 | 52.07112 | 2.17889 | 33037 ft | 489 kts | 74° |
| 2026-05-07 23:26 | 52.08631 | 2.28642 | 33040 ft | 488 kts | 74° |
| 2026-05-07 23:27 | 52.10873 | 2.44582 | 32992 ft | 473 kts | 78° |
| 2026-05-07 23:27 | 52.12628 | 2.54811 | 32999 ft | 473 kts | 73° |
| 2026-05-07 23:28 | 52.14554 | 2.65021 | 32996 ft | 472 kts | 73° |
| 2026-05-07 23:28 | 52.16489 | 2.75216 | 32994 ft | 471 kts | 73° |
| 2026-05-07 23:29 | 52.18410 | 2.85386 | 32992 ft | 469 kts | 74° |
| 2026-05-07 23:29 | 52.20307 | 2.95530 | 32997 ft | 468 kts | 73° |
| 2026-05-07 23:30 | 52.22192 | 3.05612 | 32999 ft | 467 kts | 74° |
| 2026-05-07 23:30 | 52.24069 | 3.15755 | 33003 ft | 467 kts | 74° |
| 2026-05-07 23:31 | 52.24847 | 3.26110 | 33018 ft | 462 kts | 101° |
| 2026-05-07 23:31 | 52.23973 | 3.31135 | 33007 ft | 461 kts | 112° |
| 2026-05-07 23:31 | 52.22814 | 3.36009 | 32995 ft | 460 kts | 113° |
| 2026-05-07 23:32 | 52.20454 | 3.45648 | 32996 ft | 462 kts | 112° |
| 2026-05-07 23:32 | 52.18139 | 3.55427 | 32998 ft | 462 kts | 113° |
| 2026-05-07 23:33 | 52.15764 | 3.65178 | 33000 ft | 464 kts | 113° |
| 2026-05-07 23:33 | 52.13407 | 3.74966 | 32998 ft | 465 kts | 113° |
| 2026-05-07 23:34 | 52.11015 | 3.84745 | 32997 ft | 465 kts | 113° |
| 2026-05-07 23:34 | 52.08643 | 3.94473 | 32997 ft | 466 kts | 113° |
| 2026-05-07 23:35 | 52.06235 | 4.04262 | 33000 ft | 466 kts | 113° |
| 2026-05-07 23:35 | 52.03824 | 4.14038 | 33011 ft | 466 kts | 114° |
| 2026-05-07 23:36 | 52.01407 | 4.23786 | 33111 ft | 466 kts | 113° |
| 2026-05-07 23:36 | 51.99002 | 4.33452 | 33108 ft | 464 kts | 114° |
| 2026-05-07 23:37 | 51.96570 | 4.43179 | 33105 ft | 466 kts | 114° |
| 2026-05-07 23:37 | 51.94128 | 4.52895 | 33108 ft | 465 kts | 114° |
| 2026-05-07 23:38 | 51.91690 | 4.62572 | 33110 ft | 464 kts | 114° |
| 2026-05-07 23:38 | 51.89255 | 4.72178 | 33107 ft | 464 kts | 114° |
| 2026-05-07 23:39 | 51.86804 | 4.81823 | 33107 ft | 463 kts | 114° |
| 2026-05-07 23:39 | 51.84339 | 4.91458 | 33103 ft | 463 kts | 114° |
| 2026-05-07 23:40 | 51.81871 | 5.01088 | 33108 ft | 464 kts | 114° |
| 2026-05-07 23:40 | 51.79393 | 5.10698 | 33110 ft | 462 kts | 114° |
| 2026-05-07 23:41 | 51.76927 | 5.20227 | 33104 ft | 463 kts | 114° |
| 2026-05-07 23:41 | 51.74439 | 5.29807 | 33106 ft | 463 kts | 114° |
| 2026-05-07 23:42 | 51.71944 | 5.39366 | 33107 ft | 462 kts | 114° |
| 2026-05-07 23:42 | 51.69445 | 5.48907 | 33098 ft | 461 kts | 114° |
| 2026-05-07 23:43 | 51.66941 | 5.58408 | 33100 ft | 461 kts | 114° |
| 2026-05-07 23:43 | 51.64448 | 5.67851 | 33097 ft | 461 kts | 115° |
| 2026-05-07 23:44 | 51.61927 | 5.77348 | 33094 ft | 461 kts | 115° |
| 2026-05-07 23:44 | 51.60867 | 5.81338 | 33094 ft | 461 kts | 115° |
| 2026-05-07 23:45 | 51.60172 | 5.83958 | 33157 ft | 446 kts | 115° |
| 2026-05-07 23:45 | 51.58979 | 5.88474 | 33073 ft | 431 kts | 115° |
| 2026-05-07 23:45 | 51.57817 | 5.92828 | 33100 ft | 418 kts | 115° |
| 2026-05-07 23:45 | 51.56681 | 5.97029 | 33098 ft | 417 kts | 115° |
| 2026-05-07 23:46 | 51.54310 | 6.05750 | 33108 ft | 435 kts | 114° |
| 2026-05-07 23:46 | 51.51880 | 6.14871 | 33105 ft | 454 kts | 115° |
| 2026-05-07 23:47 | 51.49415 | 6.24325 | 33110 ft | 462 kts | 111° |
| 2026-05-07 23:47 | 51.47033 | 6.33918 | 33106 ft | 463 kts | 114° |
| 2026-05-07 23:48 | 51.44694 | 6.43470 | 33107 ft | 464 kts | 112° |
| 2026-05-07 23:48 | 51.42323 | 6.53076 | 33105 ft | 464 kts | 113° |
| 2026-05-07 23:49 | 51.39944 | 6.62669 | 33110 ft | 463 kts | 112° |
| 2026-05-07 23:49 | 51.37561 | 6.72257 | 33097 ft | 464 kts | 113° |
| 2026-05-07 23:50 | 51.35191 | 6.81719 | 32692 ft | 454 kts | 112° |
| 2026-05-07 23:50 | 51.34012 | 6.86438 | 31387 ft | 463 kts | 113° |
| 2026-05-07 23:50 | 51.32800 | 6.91246 | 30195 ft | 468 kts | 113° |
| 2026-05-07 23:51 | 51.31582 | 6.96073 | 29080 ft | 469 kts | 113° |
| 2026-05-07 23:51 | 51.30361 | 7.00921 | 27900 ft | 471 kts | 113° |
| 2026-05-07 23:51 | 51.29139 | 7.05762 | 27124 ft | 464 kts | 113° |
| 2026-05-07 23:51 | 51.27914 | 7.10389 | 27083 ft | 438 kts | 118° |
| 2026-05-07 23:52 | 51.26228 | 7.14281 | 27104 ft | 423 kts | 135° |
| 2026-05-07 23:52 | 51.23969 | 7.17225 | 27101 ft | 416 kts | 151° |
| 2026-05-07 23:52 | 51.21476 | 7.19308 | 27093 ft | 413 kts | 155° |
| 2026-05-07 23:52 | 51.18931 | 7.21298 | 27097 ft | 413 kts | 156° |
| 2026-05-07 23:53 | 51.16350 | 7.23316 | 27098 ft | 413 kts | 155° |
| 2026-05-07 23:53 | 51.13786 | 7.25354 | 27094 ft | 412 kts | 155° |
| 2026-05-07 23:53 | 51.11232 | 7.27441 | 27101 ft | 413 kts | 153° |
| 2026-05-07 23:53 | 51.08700 | 7.29602 | 27097 ft | 413 kts | 155° |
| 2026-05-07 23:54 | 51.06123 | 7.31615 | 27100 ft | 413 kts | 155° |
| 2026-05-07 23:54 | 51.03575 | 7.33640 | 26810 ft | 405 kts | 154° |
| 2026-05-07 23:54 | 51.01069 | 7.35752 | 25812 ft | 410 kts | 153° |
| 2026-05-07 23:54 | 50.98568 | 7.37877 | 25221 ft | 404 kts | 154° |
| 2026-05-07 23:55 | 50.96147 | 7.39848 | 25077 ft | 391 kts | 155° |
| 2026-05-07 23:55 | 50.93716 | 7.41797 | 24870 ft | 389 kts | 155° |
| 2026-05-07 23:55 | 50.91285 | 7.43791 | 23783 ft | 398 kts | 154° |
| 2026-05-07 23:55 | 50.88845 | 7.45823 | 23199 ft | 392 kts | 154° |
| 2026-05-07 23:56 | 50.86437 | 7.47802 | 22567 ft | 388 kts | 154° |
| 2026-05-07 23:56 | 50.84047 | 7.49738 | 21883 ft | 385 kts | 155° |
| 2026-05-07 23:56 | 50.81682 | 7.51658 | 21251 ft | 380 kts | 154° |
| 2026-05-07 23:56 | 50.79377 | 7.53546 | 21084 ft | 367 kts | 154° |
| 2026-05-07 23:57 | 50.77138 | 7.55378 | 20801 ft | 365 kts | 154° |
| 2026-05-07 23:57 | 50.74844 | 7.57239 | 19713 ft | 376 kts | 154° |
| 2026-05-07 23:57 | 50.72534 | 7.59109 | 19196 ft | 369 kts | 154° |
| 2026-05-07 23:57 | 50.70269 | 7.60950 | 18554 ft | 365 kts | 154° |
| 2026-05-07 23:58 | 50.68020 | 7.62779 | 17896 ft | 362 kts | 154° |
| 2026-05-07 23:58 | 50.65792 | 7.64585 | 17286 ft | 358 kts | 154° |
| 2026-05-07 23:58 | 50.63582 | 7.66370 | 16641 ft | 355 kts | 154° |
| 2026-05-07 23:58 | 50.61388 | 7.68139 | 16009 ft | 352 kts | 154° |
| 2026-05-07 23:59 | 50.59220 | 7.69890 | 15378 ft | 349 kts | 154° |
| 2026-05-07 23:59 | 50.57084 | 7.71617 | 15078 ft | 337 kts | 154° |
| 2026-05-07 23:59 | 50.54998 | 7.73292 | 15108 ft | 346 kts | 154° |
| 2026-05-07 23:59 | 50.52892 | 7.74987 | 14544 ft | 340 kts | 154° |
| 2026-05-08 00:00 | 50.50759 | 7.76702 | 13748 ft | 344 kts | 154° |
| 2026-05-08 00:00 | 50.48646 | 7.78398 | 13229 ft | 338 kts | 154° |
| 2026-05-08 00:00 | 50.46586 | 7.80052 | 13085 ft | 330 kts | 155° |
| 2026-05-08 00:00 | 50.44502 | 7.81719 | 13108 ft | 336 kts | 154° |
| 2026-05-08 00:01 | 50.42528 | 7.83672 | 13107 ft | 341 kts | 144° |
| 2026-05-08 00:01 | 50.40683 | 7.85995 | 13104 ft | 339 kts | 142° |
| 2026-05-08 00:01 | 50.38849 | 7.88339 | 13108 ft | 339 kts | 143° |
| 2026-05-08 00:01 | 50.37000 | 7.90620 | 13108 ft | 340 kts | 143° |
| 2026-05-08 00:02 | 50.35163 | 7.92863 | 13106 ft | 338 kts | 143° |
| 2026-05-08 00:02 | 50.33311 | 7.95155 | 13110 ft | 340 kts | 143° |
| 2026-05-08 00:02 | 50.31494 | 7.97420 | 12614 ft | 333 kts | 143° |
| 2026-05-08 00:02 | 50.29656 | 7.99690 | 11838 ft | 337 kts | 143° |
| 2026-05-08 00:03 | 50.27834 | 8.01945 | 11285 ft | 332 kts | 141° |
| 2026-05-08 00:03 | 50.26377 | 8.04710 | 10687 ft | 331 kts | 118° |
| 2026-05-08 00:03 | 50.25650 | 8.08068 | 10369 ft | 319 kts | 104° |
| 2026-05-08 00:03 | 50.25147 | 8.11327 | 10358 ft | 298 kts | 104° |
| 2026-05-08 00:04 | 50.24662 | 8.14379 | 10066 ft | 289 kts | 104° |
| 2026-05-08 00:04 | 50.24170 | 8.17380 | 10095 ft | 293 kts | 105° |
| 2026-05-08 00:04 | 50.23668 | 8.20468 | 9990 ft | 288 kts | 104° |
| 2026-05-08 00:04 | 50.23177 | 8.23535 | 10091 ft | 296 kts | 104° |
| 2026-05-08 00:05 | 50.22674 | 8.26629 | 10105 ft | 294 kts | 105° |
| 2026-05-08 00:05 | 50.22166 | 8.29742 | 10108 ft | 295 kts | 104° |
| 2026-05-08 00:05 | 50.21663 | 8.32847 | 10106 ft | 296 kts | 104° |
| 2026-05-08 00:05 | 50.21134 | 8.35932 | 10107 ft | 294 kts | 110° |
| 2026-05-08 00:06 | 50.20073 | 8.38574 | 10123 ft | 293 kts | 137° |
| 2026-05-08 00:06 | 50.18359 | 8.40236 | 10113 ft | 292 kts | 159° |
| 2026-05-08 00:06 | 50.16457 | 8.41323 | 10106 ft | 290 kts | 161° |
| 2026-05-08 00:06 | 50.14524 | 8.42231 | 10104 ft | 290 kts | 173° |
| 2026-05-08 00:07 | 50.12539 | 8.41951 | 10115 ft | 289 kts | 200° |
| 2026-05-08 00:07 | 50.10834 | 8.40372 | 10113 ft | 286 kts | 225° |
| 2026-05-08 00:07 | 50.09721 | 8.37831 | 10113 ft | 285 kts | 247° |
| 2026-05-08 00:07 | 50.09019 | 8.34970 | 10037 ft | 279 kts | 250° |
| 2026-05-08 00:08 | 50.08354 | 8.32128 | 9415 ft | 282 kts | 250° |
| 2026-05-08 00:08 | 50.07672 | 8.29307 | 8987 ft | 278 kts | 249° |
| 2026-05-08 00:08 | 50.06991 | 8.26513 | 9091 ft | 284 kts | 249° |
| 2026-05-08 00:08 | 50.06296 | 8.23665 | 9061 ft | 275 kts | 249° |
| 2026-05-08 00:09 | 50.05614 | 8.20861 | 8427 ft | 279 kts | 249° |
| 2026-05-08 00:09 | 50.04950 | 8.18127 | 8385 ft | 260 kts | 249° |
| 2026-05-08 00:09 | 50.04329 | 8.15587 | 8321 ft | 243 kts | 249° |
| 2026-05-08 00:09 | 50.03728 | 8.13125 | 7842 ft | 245 kts | 249° |
| 2026-05-08 00:10 | 50.03121 | 8.10648 | 7440 ft | 244 kts | 249° |
| 2026-05-08 00:10 | 50.02532 | 8.08229 | 7052 ft | 242 kts | 249° |
| 2026-05-08 00:10 | 50.01938 | 8.05792 | 6663 ft | 240 kts | 249° |
| 2026-05-08 00:10 | 50.01349 | 8.03378 | 6285 ft | 238 kts | 249° |
| 2026-05-08 00:11 | 50.00763 | 8.00980 | 5891 ft | 237 kts | 249° |
| 2026-05-08 00:11 | 50.00179 | 7.98596 | 5507 ft | 235 kts | 249° |
| 2026-05-08 00:11 | 49.99598 | 7.96223 | 5089 ft | 235 kts | 249° |
| 2026-05-08 00:11 | 49.99015 | 7.93858 | 4687 ft | 234 kts | 249° |
| 2026-05-08 00:12 | 49.98437 | 7.91498 | 4291 ft | 231 kts | 249° |
| 2026-05-08 00:12 | 49.97869 | 7.89187 | 4079 ft | 225 kts | 248° |
| 2026-05-08 00:12 | 49.97305 | 7.86883 | 4091 ft | 231 kts | 249° |
| 2026-05-08 00:12 | 49.96678 | 7.84591 | 4088 ft | 234 kts | 234° |
| 2026-05-08 00:13 | 49.95436 | 7.83060 | 4124 ft | 233 kts | 195° |
| 2026-05-08 00:13 | 49.93843 | 7.83099 | 4117 ft | 233 kts | 162° |
| 2026-05-08 00:13 | 49.92338 | 7.83995 | 4098 ft | 231 kts | 157° |
| 2026-05-08 00:13 | 49.90842 | 7.84941 | 4100 ft | 232 kts | 159° |
| 2026-05-08 00:14 | 49.89370 | 7.85830 | 4091 ft | 221 kts | 150° |
| 2026-05-08 00:14 | 49.88311 | 7.87516 | 4131 ft | 223 kts | 116° |
| 2026-05-08 00:14 | 49.88016 | 7.89792 | 4117 ft | 222 kts | 85° |
| 2026-05-08 00:14 | 49.88415 | 7.92023 | 4100 ft | 216 kts | 69° |
| 2026-05-08 00:15 | 49.88965 | 7.94205 | 4093 ft | 216 kts | 69° |
| 2026-05-08 00:15 | 49.89564 | 7.96351 | 4099 ft | 218 kts | 66° |
| 2026-05-08 00:15 | 49.90152 | 7.98487 | 4117 ft | 217 kts | 69° |
| 2026-05-08 00:15 | 49.90676 | 8.00656 | 4086 ft | 211 kts | 70° |
| 2026-05-08 00:16 | 49.91192 | 8.02831 | 4087 ft | 213 kts | 70° |
| 2026-05-08 00:16 | 49.91716 | 8.05000 | 4087 ft | 216 kts | 70° |
| 2026-05-08 00:16 | 49.92236 | 8.07164 | 4087 ft | 216 kts | 70° |
| 2026-05-08 00:16 | 49.92741 | 8.09303 | 4096 ft | 212 kts | 70° |
| 2026-05-08 00:17 | 49.93257 | 8.11483 | 4099 ft | 214 kts | 70° |
| 2026-05-08 00:17 | 49.93777 | 8.13650 | 4105 ft | 217 kts | 70° |
| 2026-05-08 00:17 | 49.94298 | 8.15816 | 4103 ft | 214 kts | 70° |
| 2026-05-08 00:17 | 49.94814 | 8.17995 | 4102 ft | 214 kts | 70° |
| 2026-05-08 00:18 | 49.95306 | 8.20055 | 4107 ft | 194 kts | 70° |
| 2026-05-08 00:18 | 49.95775 | 8.22019 | 4104 ft | 190 kts | 70° |
| 2026-05-08 00:18 | 49.96229 | 8.23921 | 4106 ft | 189 kts | 70° |
| 2026-05-08 00:18 | 49.96677 | 8.25796 | 3951 ft | 187 kts | 70° |
| 2026-05-08 00:19 | 49.97117 | 8.27645 | 3719 ft | 176 kts | 70° |
| 2026-05-08 00:19 | 49.97529 | 8.29377 | 3498 ft | 166 kts | 70° |
| 2026-05-08 00:19 | 49.97914 | 8.30991 | 3293 ft | 153 kts | 70° |
| 2026-05-08 00:19 | 49.98276 | 8.32522 | 3097 ft | 149 kts | 71° |
| 2026-05-08 00:20 | 49.98629 | 8.34010 | 2905 ft | 146 kts | 70° |
| 2026-05-08 00:20 | 49.98982 | 8.35477 | 2716 ft | 144 kts | 70° |
| 2026-05-08 00:20 | 49.99328 | 8.36929 | 2530 ft | 143 kts | 70° |
| 2026-05-08 00:20 | 49.99672 | 8.38372 | 2354 ft | 142 kts | 70° |
| 2026-05-08 00:21 | 50.00015 | 8.39785 | 2183 ft | 142 kts | 69° |
| 2026-05-08 00:21 | 50.00348 | 8.41223 | 1993 ft | 140 kts | 70° |
| 2026-05-08 00:21 | 50.00693 | 8.42644 | 1798 ft | 139 kts | 69° |
| 2026-05-08 00:21 | 50.01031 | 8.44048 | 1640 ft | 138 kts | 71° |
| 2026-05-08 00:22 | 50.01353 | 8.45464 | 1456 ft | 139 kts | 68° |
| 2026-05-08 00:22 | 50.01690 | 8.46862 | 1259 ft | 138 kts | 68° |
| 2026-05-08 00:22 | 50.02032 | 8.48254 | 1076 ft | 138 kts | 66° |
| 2026-05-08 00:22 | 50.02366 | 8.49659 | 872 ft | 138 kts | 69° |
| 2026-05-08 00:23 | 50.02697 | 8.51054 | 697 ft | 138 kts | 68° |
| 2026-05-08 00:23 | 50.03024 | 8.52433 | 533 ft | 139 kts | 68° |
| 2026-05-08 00:23 | 50.03352 | 8.53833 | 359 ft | 135 kts | 69° |
| 2026-05-08 00:23 | 50.03644 | 8.55053 | 345 ft | 102 kts | 71° |
| 2026-05-08 00:24 | 50.03848 | 8.55906 | 354 ft | 66 kts | 70° |
| 2026-05-08 00:24 | 50.03971 | 8.56418 | 358 ft | 43 kts | 68° |
| 2026-05-08 00:24 | 50.04091 | 8.56707 | 363 ft | 20 kts | 26° |
| 2026-05-08 00:24 | 50.04199 | 8.56781 | 364 ft | 16 kts | 14° |
| 2026-05-08 00:25 | 50.04340 | 8.56824 | 364 ft | 19 kts | 10° |
| 2026-05-08 00:25 | 50.04488 | 8.56867 | 360 ft | 26 kts | 13° |
| 2026-05-08 00:25 | 50.04644 | 8.56929 | 365 ft | 20 kts | 20° |
| 2026-05-08 00:25 | 50.04744 | 8.56933 | 360 ft | 12 kts | 305° |
| 2026-05-08 00:26 | 50.04753 | 8.56887 | 361 ft | 0 kts | 288° |